createdAt,value
2022-09-11T06:14:31.663Z,100.00
2022-09-11T06:24:31.878Z,100.00
2022-09-11T06:34:31.725Z,100.00
2022-09-11T06:44:31.909Z,100.00
2022-09-11T06:54:31.880Z,100.00
2022-09-11T07:04:31.904Z,100.00
2022-09-11T07:14:31.800Z,100.00
2022-09-11T07:24:31.810Z,100.00
2022-09-11T07:34:31.834Z,100.00
2022-09-11T07:44:31.948Z,100.00
2022-09-11T07:54:31.873Z,100.00
2022-09-11T08:04:32.088Z,100.00
2022-09-11T08:14:31.862Z,100.00
2022-09-11T08:24:31.995Z,100.00
2022-09-11T08:34:32.031Z,100.00
2022-09-11T08:44:34.191Z,100.00
2022-09-11T08:54:32.303Z,100.00
2022-09-11T09:04:32.123Z,100.00
2022-09-11T09:14:32.204Z,100.00
2022-09-11T09:24:32.058Z,100.00
2022-09-11T09:34:32.301Z,100.00
2022-09-11T09:44:32.008Z,100.00
2022-09-11T09:54:31.992Z,100.00
2022-09-11T10:04:33.258Z,100.00
2022-09-11T10:14:50.440Z,100.00
2022-09-11T10:24:32.262Z,100.00
2022-09-11T10:34:32.099Z,100.00
2022-09-11T10:44:32.329Z,100.00
2022-09-11T10:54:32.141Z,100.00
2022-09-11T11:04:32.205Z,100.00
2022-09-11T11:14:32.141Z,100.00
2022-09-11T11:24:32.393Z,100.00
2022-09-11T11:34:32.294Z,100.00
2022-09-11T11:44:32.264Z,100.00
2022-09-11T11:54:32.280Z,100.00
2022-09-11T12:04:32.268Z,100.00
2022-09-11T12:14:32.359Z,100.00
2022-09-11T12:24:32.422Z,97.14
2022-09-11T12:34:32.346Z,89.77
2022-09-11T12:44:32.333Z,97.26
2022-09-11T12:54:32.464Z,100.00
2022-09-11T13:04:32.265Z,90.50
2022-09-11T13:14:32.408Z,90.28
2022-09-11T13:24:32.319Z,78.71
2022-09-11T13:34:32.432Z,78.01
2022-09-11T13:44:32.467Z,78.28
2022-09-11T13:54:32.361Z,81.48
2022-09-11T14:04:32.428Z,82.79
2022-09-11T14:14:32.332Z,79.87
2022-09-11T14:24:32.527Z,79.43
2022-09-11T14:34:32.348Z,76.86
2022-09-11T14:44:32.518Z,72.76
2022-09-11T14:54:32.481Z,70.90
2022-09-11T15:04:32.461Z,70.60
2022-09-11T15:14:54.823Z,71.49
2022-09-11T15:24:32.573Z,69.85
2022-09-11T15:34:32.522Z,67.13
2022-09-11T15:44:32.608Z,67.54
2022-09-11T15:54:32.662Z,66.28
2022-09-11T16:04:32.556Z,66.57
2022-09-11T16:14:32.589Z,67.46
2022-09-11T16:24:32.543Z,68.53
2022-09-11T16:34:32.861Z,68.40
2022-09-11T16:44:32.621Z,70.54
2022-09-11T16:54:32.777Z,70.61
2022-09-11T17:04:32.745Z,70.89
2022-09-11T17:14:32.696Z,72.61
2022-09-11T17:24:32.760Z,77.96
2022-09-11T17:34:32.562Z,90.74
2022-09-11T17:44:32.639Z,100.00
2022-09-11T17:54:32.632Z,100.00
2022-09-11T18:04:32.830Z,100.00
2022-09-11T18:14:32.779Z,100.00
2022-09-11T18:24:32.838Z,100.00
2022-09-11T18:34:33.122Z,100.00
2022-09-11T18:44:32.617Z,100.00
2022-09-11T18:54:32.898Z,100.00
2022-09-11T19:04:32.977Z,100.00
2022-09-11T19:14:33.164Z,100.00
